aviador You're here:

KDNL Decoded Metar

AUGUSTA/DANIEL in GA, USA
Report Time2018-05-20 22:53:00
UTC Time2018-05-20 23:10:11
Flight Rules vfr VFR
Wind180° at 08 kt
W.Decomp.*RWY 23: 5.6 kt HW 5.8 kt LCW
RWY 11: 2.2 kt HW 7.7 kt RCW
W.Rank180° ranks 22
Current wind is above 180° avg. (6.1)
Visibility9999 m
Phenomena:N/A
Clouds:Broken 120 Hf
Expected CloudBase > 1,600 ft AGL from Temp-Dew spread
Ceiling12,000 ft
Temp26°C (ISA +12)
Dew Point22°C (79% RH)
QNH1020 hPa
Density Alt1,909 ft
Elevation427 ft
Report Wrong Elevation
Raw Report
METAR KDNL 202253Z AUTO 18008KT 10SM BKN120 26/22 A3013 RMK AO2 LTG
DSNT NW SLP197 T02610217 $=

Extra information for KDNL:More info

Metar Taf Metar & Taf Last 4 Metars F.Rules Stats Wind Profile Meteogram Temp Stats Airport Information Weather charts Add Link Nearby VenuesMetar ALERT Operation Metar Decoded Social comments

AIRNAV info for KDNL